Tiempo atmosférico en la estación meteorológica de La Palma Aeropuerto, Santa Cruz de Tenerife (33 m.)



Fecha
DESCASC
Temp. máxima en grados centígrados (hora)
DESCASC
Temp. mínima en grados centígrados (hora)
DESCASC
Temp. media en grados centígrados
DESCASC
Racha de viento máxima en m/sg (hora)
DESCASC
Velocidad máxima media en intervalos de 10 minutos(hora)
DESCASC
Precipitaciones diarias en mm
DESCASC
Precipitaciones de 00:00 a 06:00 en mm
DESCASC
Precipitaciones de 06:00 a 12:00 en mm
DESCASC
Precipitaciones de 12:00 a 18:00 en mm
DESCASC
Precipitaciones de 18:00 a 24:00 en mm
DESCASC
20-09-2020 26.8 (15:50) 21.9 (01:30) 24.3 6.67 (20:20) 5.28 (21:50) 0 0 0 0 0
19-09-2020 26.7 (14:50) 21.2 (06:50) 24 7.78 (18:30) 6.11 (21:10) 0 0 0 0 0
17-09-2020 25.6 (15:30) 21.8 (00:00) 23.7 13.89 (12:00) 9.72 (08:10) 0 0 0 0 0
16-09-2020 31.2 (12:50) 23.1 (03:30) 27.2 10.83 (00:10) 8.06 (22:30) -- 0 -- 0 0
15-09-2020 26.9 (14:20) 23.5 (00:00) 25.2 12.5 (22:10) 9.72 (22:10) -- 0 0 -- 0
14-09-2020 27.5 (13:20) 20.3 (00:00) 23.9 5.83 (16:50) 4.17 (23:10) 0 0 0 0 0
13-09-2020 27 (16:00) 20.6 (00:00) 23.8 9.17 (13:20) 6.94 (13:30) 0 0 0 0 0
12-09-2020 25.8 (15:30) 22.6 (08:20) 24.2 11.67 (00:20) 8.89 (00:20) 0 0 0 0 0
11-09-2020 27.1 (14:00) 22.7 (00:00) 24.9 11.39 (03:50) 9.17 (01:40) 0 0 0 0 0
10-09-2020 27.2 (13:50) 23 (00:00) 25.1 14.44 (06:00) 11.39 (06:00) -- -- 0 0 0
09-09-2020 27.3 (13:40) 22.6 (07:00) 24.9 11.39 (20:10) 8.61 (20:10) 0 0 0 0 0
08-09-2020 29.1 (02:40) 23.4 (00:00) 26.3 11.39 (08:50) 8.06 (08:50) 0 0 0 0 0
07-09-2020 27.4 (23:50) 21.7 (04:20) 24.6 7.78 (17:30) 6.11 (17:40) 0.1 0 0.1 0 0
06-09-2020 26.5 (13:10) 20 (00:00) 23.3 6.67 (22:00) 5.28 (22:00) 0 0 0 0 0
05-09-2020 26.1 (13:20) 21.1 (00:00) 23.6 8.89 (00:30) 6.67 (00:50) 0 0 0 0 0
04-09-2020 26.9 (13:40) 21.5 (00:00) 24.2 8.33 (10:20) 6.67 (10:50) 0 0 0 0 0
03-09-2020 27.6 (12:30) 20.9 (00:00) 24.3 8.33 (19:30) 6.11 (19:30) 0 0 0 0 0
02-09-2020 26 (17:50) 21.6 (00:00) 23.8 7.22 (05:20) 6.11 (13:40) 0 0 0 0 0
01-09-2020 25.4 (12:30) 21.9 (00:00) 23.6 8.89 (00:30) 5.83 (01:00) 0 0 0 0 0
31-08-2020 26 (13:00) 21.8 (00:00) 23.9 11.39 (17:50) 9.17 (17:50) 0 0 0 0 0
30-08-2020 26.8 (12:50) 20.9 (00:00) 23.8 16.94 (06:10) 12.5 (10:40) 0 0 0 0 0
29-08-2020 28 (13:00) 22.6 (00:00) 25.3 18.06 (15:50) 14.72 (15:50) 0 0 0 0 0
28-08-2020 27.7 (13:10) 23.3 (00:00) 25.5 10.83 (14:10) 8.33 (23:59) -- 0 -- -- 0
27-08-2020 29.1 (16:20) 23.6 (00:00) 26.4 8.89 (13:50) 6.39 (21:00) 0 0 0 0 0
26-08-2020 27.4 (16:30) 22.7 (00:00) 25.1 10.28 (03:50) 7.22 (01:30) 0 0 0 0 0
25-08-2020 26.6 (13:40) 22.3 (00:00) 24.4 12.5 (00:40) 9.72 (00:50) 0 0 0 0 0
24-08-2020 27.8 (12:50) 22.2 (05:40) 25 12.78 (19:00) 10.28 (21:00) 0 0 0 0 0

Gráficas

Temp. máximas Temp. mínimas Temp. medias Precipitaciones Rachas de viento máximas Velocidades máximas media en intervalos de 10 minutos

Datos horarios

Fecha y hora oficial Temperatura (ºC) Velocidad del viento (km/h) Dirección del viento Racha (km/h) Dirección de racha Precipitación (mm) Presión (hPa) Tendencia (hPa) Humedad (%)
2020-09-22 23:00:00 23.8 13 Norte 28 Nordeste 0 1012.3 0.7 88
2020-09-22 22:00:00 24.3 5 Nordeste 28 Nordeste 0 1012.3 -- 84
2020-09-22 21:00:00 24 14 Nordeste 39 Nordeste 0 1012.7 -- 87
2020-09-22 20:00:00 24 15 Nordeste 35 Nordeste 0 1011.6 -- 88
2020-09-22 19:00:00 24.5 18 Nordeste 46 Nordeste 0 1011.9 -- 81
2020-09-22 18:00:00 24.4 23 Nordeste 42 Nordeste 0 1011.9 -- 85
2020-09-22 17:00:00 24.4 25 Nordeste 39 Nordeste 0 1011.9 -- 85
2020-09-22 16:00:00 24.6 20 Nordeste 28 Nordeste 0 1012.6 -- 84
2020-09-22 15:00:00 26.1 14 Norte 17 Norte 0 1012.8 -- 76
2020-09-22 14:00:00 25.6 10 Norte 13 Norte 0 1013 -- 78
2020-09-22 13:00:00 24.8 5 Este 11 Norte 0 1013.4 -- 81
2020-09-22 12:00:00 24.6 8 Norte 11 Norte 0 1013.3 -- 81
2020-09-22 11:00:00 23.9 4 Nordeste 5 Nordeste 0 1013.2 -- 83
2020-09-22 10:00:00 23.7 3 Noroeste -- -- -- 1013.1 -- 83
2020-09-22 09:00:00 23 8 Noroeste 13 Noroeste 0 1012.3 -- 85
2020-09-22 08:00:00 22.7 7 Noroeste 17 Noroeste 0 1012.2 -- 84
2020-09-22 07:00:00 22.8 12 Noroeste 18 Noroeste 0 1011.8 -- 83
2020-09-22 06:00:00 22.7 9 Noroeste 15 Noroeste 0 1011.7 -- 82
2020-09-22 05:00:00 22.9 10 Norte 17 Norte 0 1011.6 -- 83
2020-09-22 04:00:00 22.9 8 Norte 17 Noroeste 0 1012.1 -- 85
2020-09-22 03:00:00 22.6 11 Noroeste 22 Norte 0 1012 -- 83
2020-09-22 02:00:00 23 13 Norte 18 Norte 0 1012.6 -- 84
2020-09-22 01:00:00 23.2 13 Noroeste 17 Noroeste 0 1013.2 -- 82
2020-09-22 00:00:00 23.4 9 Norte 13 Norte 0 1013.5 -- 82
2020-09-21 23:00:00 23.5 10 Norte 15 Norte 0 1013.5 -- 82
2020-09-21 22:00:00 23.8 14 Norte 22 Norte 0 1013.4 -- 81
2020-09-21 21:00:00 24 16 Norte 22 Norte 0 1013 -- 79
2020-09-21 20:00:00 24.4 11 Norte 17 Norte 0 1012.8 -- 78
2020-09-21 19:00:00 24.6 12 Norte 21 Norte 0 1012.9 -- 77
2020-09-21 18:00:00 24.9 15 Norte 22 Norte 0 1012.5 -- 77
2020-09-21 17:00:00 25.1 16 Nordeste 21 Nordeste 0 1012.4 -- 76
2020-09-21 16:00:00 26 16 Norte 22 Norte 0 1013 -- 72
2020-09-21 15:00:00 26.5 17 Norte 22 Norte 0 1013.3 -- 69
2020-09-21 14:00:00 26.7 17 Norte 22 Norte 0 1013.8 -- 68
2020-09-21 13:00:00 26.4 14 Norte 21 Norte 0 1014.1 -- 68
2020-09-21 12:00:00 26.4 15 Norte 18 Norte 0 1014.5 -- 67
2020-09-21 11:00:00 25.2 14 Norte 18 Norte 0 1014.2 -- 71
2020-09-21 10:00:00 23.7 12 Norte 21 Noroeste 0 1013.7 -- 75
2020-09-21 09:00:00 22.6 12 Noroeste 17 Noroeste 0 1013.3 -- 78
2020-09-21 08:00:00 21.7 12 Oeste 17 Oeste 0 1012.8 -- 80
2020-09-21 07:00:00 21.8 12 Oeste 18 Noroeste 0 1012.6 -- 79
2020-09-21 06:00:00 22.2 11 Noroeste 18 Noroeste 0 1012.5 -- 77
2020-09-21 05:00:00 22.6 14 Noroeste 24 Norte 0 1012.3 -- 77
2020-09-21 04:00:00 22.5 11 Noroeste 18 Noroeste 0 1012.7 -- 77
2020-09-21 03:00:00 22.7 12 Noroeste 18 Noroeste 0 1013 -- 77
2020-09-21 02:00:00 22.9 11 Noroeste 22 Noroeste 0 1013.4 -- 78
2020-09-21 01:00:00 23 12 Norte 17 Norte 0 1013.9 -- 77
2020-09-21 00:00:00 23.2 6 Norte 22 Norte 0 1014 -- 77
2020-09-20 23:00:00 23.5 18 Norte 22 Norte 0 1013.9 -- 80
2020-09-20 22:00:00 23.7 18 Norte 24 Nordeste 0 1013.7 -- 78
2020-09-20 21:00:00 24 14 Norte 24 Nordeste 0 1013.1 -- 78
2020-09-20 20:00:00 24.3 15 Norte 21 Norte 0 1012.6 -- 76
2020-09-20 19:00:00 24.5 11 Norte 21 Norte 0 1012.7 -- 74
2020-09-20 18:00:00 25 14 Norte 21 Norte 0 1012.3 -- 73
2020-09-20 17:00:00 25.5 14 Norte 21 Norte 0 1012 -- 69
2020-09-20 16:00:00 26.3 16 Norte 21 Norte 0 1012.1 -- 66
2020-09-20 15:00:00 26.3 14 Norte 21 Norte 0 1012.6 -- 66
2020-09-20 14:00:00 25.8 13 Nordeste 18 Norte 0 1013.4 -- 68
2020-09-20 13:00:00 25.8 14 Norte 18 Norte 0 1013.6 -- 66
2020-09-20 12:00:00 25.2 13 Nordeste 21 Nordeste 0 1014.1 -- 68
2020-09-20 11:00:00 24.6 15 Nordeste 22 Norte 0 1013.8 -- 69
2020-09-20 10:00:00 23.8 13 Norte 21 Noroeste 0 1013.6 -- 68
2020-09-20 09:00:00 22.8 13 Noroeste 21 Noroeste 0 1013.3 -- 70
2020-09-20 08:00:00 22.5 13 Noroeste 18 Oeste 0 1013.2 -- 71
2020-09-20 07:00:00 22.6 14 Noroeste 22 Noroeste 0 1013.1 -- 71
2020-09-20 06:00:00 22.6 13 Noroeste 21 Noroeste 0 1012.9 -- 71
2020-09-20 05:00:00 22.5 14 Noroeste 22 Noroeste 0 1012.7 -- 72
2020-09-20 04:00:00 22.4 13 Noroeste 18 Noroeste 0 1013.1 -- 72
2020-09-20 03:00:00 22.3 11 Noroeste 18 Oeste 0 1013.5 -- 74
2020-09-20 02:00:00 22 14 Oeste 21 Oeste 0 1014.1 -- 72
2020-09-20 01:00:00 22.1 15 Oeste 21 Noroeste 0 1014.2 -- 71
2020-09-20 00:00:00 22.4 14 Oeste 18 Oeste 0 1014.7 -- 71
2020-09-19 23:00:00 22.9 13 Noroeste 21 Norte 0 1014.8 -- 71
2020-09-19 22:00:00 23.2 18 Norte 26 Norte 0 1014.4 -- 75
2020-09-19 21:00:00 23.6 19 Norte 28 Norte 0 1013.8 -- 75
2020-09-19 20:00:00 24 15 Norte 24 Norte 0 1013.6 -- 73
2020-09-19 19:00:00 24.2 19 Norte 28 Nordeste 0 1013.4 -- 71
2020-09-19 18:00:00 24.6 17 Norte 22 Nordeste 0 1013.5 -- 71
2020-09-19 17:00:00 25.3 14 Norte 21 Nordeste 0 1013.7 -- 67
2020-09-19 16:00:00 25.6 17 Nordeste 22 Nordeste 0 1013.7 -- 66
2020-09-19 15:00:00 26.3 16 Norte 24 Nordeste 0 1014.1 -- 62
2020-09-19 14:00:00 25.9 17 Norte 22 Nordeste 0 1014.8 -- 63
2020-09-19 13:00:00 25.8 17 Norte 24 Norte 0 1015.1 -- 62
2020-09-19 12:00:00 25.4 18 Norte 24 Norte 0 1015.1 -- 65
2020-09-19 11:00:00 25.6 18 Norte 22 Norte 0 1014.9 -- 64
2020-09-19 10:00:00 24.2 13 Norte 18 Norte 0 1014.6 -- 65
2020-09-19 09:00:00 22.6 13 Oeste 21 Oeste 0 1014.1 -- 66
2020-09-19 08:00:00 21.4 16 Oeste 21 Oeste 0 1014 -- 69
2020-09-19 07:00:00 21.4 17 Oeste 22 Oeste 0 1013.3 -- 65
2020-09-19 06:00:00 21.3 17 Oeste 24 Noroeste 0 1013 -- 69
2020-09-19 05:00:00 21.9 15 Noroeste 24 Noroeste 0 1013.1 -- 72
2020-09-19 04:00:00 21.8 14 Oeste 21 Noroeste 0 1013.4 -- 72
2020-09-19 03:00:00 21.8 14 Oeste 21 Noroeste 0 1013.5 -- 68
2020-09-19 02:00:00 22.2 13 Noroeste 21 Noroeste 0 1013.7 -- 70
2020-09-19 01:00:00 22.2 12 Oeste 24 Noroeste 0 1014.2 -- 72
2020-09-19 00:00:00 22.7 14 Noroeste 30 Noroeste 0 1014.1 -- 69
2020-09-18 23:00:00 22.9 15 Noroeste 28 Norte 0 1014 -- 68
2020-09-18 22:00:00 23 14 Noroeste 33 Norte 0 1014 -- 73
2020-09-18 21:00:00 23.3 22 Norte 35 Norte 0 1013.4 -- 73
2020-09-18 20:00:00 23.5 26 Norte 33 Norte 0 1013 -- 74
2020-09-18 19:00:00 23.8 24 Norte 32 Norte 0 1012.8 -- 74
2020-09-18 18:00:00 24.1 25 Nordeste 32 Nordeste 0 1012.7 -- 72
2020-09-18 17:00:00 24.7 19 Norte 28 Nordeste 0 1012.9 -- 69
2020-09-18 16:00:00 24.5 24 Nordeste 37 Nordeste 0 1012.9 -- 71
2020-09-18 15:00:00 25 27 Nordeste 35 Nordeste 0 1012.8 -- 68
2020-09-18 14:00:00 25.1 28 Norte 33 Norte 0 1013.4 -- 69
2020-09-18 13:00:00 25.2 27 Norte 33 Nordeste 0 1013.6 -- 69
2020-09-18 12:00:00 25.4 28 Nordeste 41 Nordeste 0 1013.8 -- 70
2020-09-18 11:00:00 24.7 30 Nordeste 41 Nordeste 0 1013.1 -- 71
2020-09-18 10:00:00 24.5 33 Nordeste 41 Nordeste 0 1012.2 -- 71
2020-09-18 09:00:00 23.6 10 Norte 17 Norte 0 1011.5 -- 65
2020-09-18 08:00:00 20.9 6 Oeste 22 Sudoeste 0 1010.9 -- 67
2020-09-18 07:00:00 21.7 6 Sudoeste 21 Oeste 0 1010.7 -- 65
2020-09-18 06:00:00 22.6 5 Norte 22 Norte 0 1010.1 -- 63
2020-09-18 05:00:00 22.5 11 Norte 21 Norte 0 1010 -- 62
2020-09-18 04:00:00 22.4 10 Noroeste 32 Noroeste 0 1010 -- 62
2020-09-18 03:00:00 21.4 10 Oeste 15 Oeste 0 1010.5 -- 73
2020-09-18 02:00:00 22.4 6 Sudoeste 21 Este 0 1011 -- 70
2020-09-18 01:00:00 22.7 11 Sudoeste 21 Sudoeste 0 1011.1 -- 69
2020-09-18 00:00:00 22.4 14 Sudoeste 22 Sudoeste 0 1011 -- 71
2020-09-17 23:00:00 22.4 4 Oeste 17 Sudeste 0 1011.2 -- 70
2020-09-17 22:00:00 23.6 15 Este 28 Este 0 1011 -- 64
2020-09-17 21:00:00 23.6 6 Noroeste 33 Norte 0 1010.5 -- 69
2020-09-17 20:00:00 23.9 21 Norte 42 Norte 0 1010.3 -- 68
2020-09-17 19:00:00 23.9 35 Norte 45 Nordeste 0 1010.3 -- 73
2020-09-17 18:00:00 24.2 31 Nordeste 41 Nordeste 0 1010.7 -- 71
2020-09-17 17:00:00 24.7 31 Nordeste 39 Nordeste 0 1010.7 -- 70
2020-09-17 16:00:00 25 18 Nordeste 32 Nordeste 0 1010.9 -- 66
2020-09-17 15:00:00 25.1 22 Nordeste 30 Nordeste 0 1011.3 -- 66
2020-09-17 14:00:00 24.4 22 Nordeste 45 Nordeste 0 1011.8 -- 69
2020-09-17 13:00:00 24 28 Nordeste 45 Nordeste 0 1012.1 -- 74
2020-09-17 12:00:00 24.3 30 Nordeste 50 Nordeste 0 1012.1 -- 73
2020-09-17 11:00:00 24.9 25 Norte 37 Norte 0 1011.8 -- 72
2020-09-17 10:00:00 23.6 30 Nordeste 45 Norte 0 1011.3 -- 78
2020-09-17 09:00:00 23.2 34 Norte 46 Nordeste 0 1010.8 -- 82
2020-09-17 08:00:00 23.1 33 Norte 48 Nordeste 0 1010.5 -- 84
2020-09-17 07:00:00 23.2 26 Norte 45 Nordeste 0 1009.7 -- 84
2020-09-17 06:00:00 23.4 23 Norte 39 Norte 0 1009.6 -- 82
2020-09-17 05:00:00 23.5 9 Norte 41 Norte 0 1009.8 -- 79
2020-09-17 04:00:00 23.7 17 Norte 35 Norte 0 1010 -- 82
2020-09-17 03:00:00 23.8 20 Norte 35 Norte 0 1011 -- 82
2020-09-17 02:00:00 23.9 8 Norte 42 Norte 0 1011 -- 80
2020-09-17 01:00:00 24.4 16 Nordeste 42 Norte 0 1012.2 -- 79
2020-09-17 00:00:00 24.3 25 Norte 39 Norte 0 1012.4 -- 82
2020-09-16 23:00:00 24.3 27 Norte 39 Norte 0 1012.4 -- 84
2020-09-16 22:00:00 24.6 19 Norte 37 Norte 0 1011.9 -- 84
2020-09-16 21:00:00 24.7 25 Norte 37 Norte 0 1011.5 -- 85
2020-09-16 20:00:00 24.4 18 Norte 35 Nordeste 0 1011.5 -- 89
2020-09-16 19:00:00 25.1 18 Norte 32 Norte 0 1011.2 -- 87
2020-09-16 18:00:00 26 10 Norte 17 Norte 0 1011.5 -- 79
2020-09-16 17:00:00 26.7 10 Norte 15 Norte 0 1011.7 -- 65
2020-09-16 16:00:00 29.6 4 Norte 13 Norte 0 1011.6 -- 39
2020-09-16 15:00:00 28.4 2 Norte 8 Norte 0 1012.3 -- 56
2020-09-16 14:00:00 28 0 Calma 13 Nordeste 0 1012.7 -- 55
2020-09-16 13:00:00 30.7 6 Norte 13 Oeste 0 1013.3 -- 36
2020-09-16 12:00:00 26.4 0 Calma 21 Norte 0 1013.4 -- 69
2020-09-16 11:00:00 24.7 5 Noroeste 13 Norte 0 1013.7 -- 83
2020-09-16 10:00:00 24.2 10 Norte 18 Norte -- 1013.2 -- 85
2020-09-16 09:00:00 24.1 8 Norte 21 Nordeste 0 -- -- 84
2020-09-16 08:00:00 23.5 10 Sudoeste 21 Oeste 0 1013.4 -- 87
2020-09-16 07:00:00 23.8 13 Noroeste 24 Norte 0 1013.1 -- 85
2020-09-16 06:00:00 23.7 12 Noroeste 18 Noroeste 0 1013.1 -- 87
2020-09-16 05:00:00 23.7 10 Noroeste 22 Norte 0 1012.9 -- 78
2020-09-16 04:00:00 23.6 13 Noroeste 22 Norte 0 1013.3 -- 87
2020-09-16 03:00:00 23.8 20 Norte 28 Norte 0 1014 -- 87
2020-09-16 02:00:00 23.8 27 Norte 33 Norte 0 1014.5 -- 88
2020-09-16 01:00:00 23.9 22 Norte 39 Norte 0 1015.2 -- 84
2020-09-16 00:00:00 24 25 Norte 37 Nordeste 0 1015.3 -- 81
2020-09-15 23:00:00 24 18 Norte 45 Nordeste 0 1016 -- 85
2020-09-15 22:00:00 24 23 Norte 37 Norte 0 1014.5 -- 83
2020-09-15 21:00:00 24.1 16 Norte 28 Norte 0 1014.8 -- 78
2020-09-15 20:00:00 24.2 12 Norte 24 Norte 0 1015.1 -- 82
2020-09-15 19:00:00 24.4 17 Norte 26 Norte 0 1014.5 -- 81
2020-09-15 18:00:00 24.5 20 Norte 32 Norte 0 1015.1 -- 81
2020-09-15 17:00:00 24.9 22 Norte 30 Norte 0 1014.7 -- 82
2020-09-15 16:00:00 25.3 23 Norte 32 Nordeste 0 1014.5 -- 81
2020-09-15 15:00:00 26 24 Norte 30 Norte 0 1014.9 -- 78
2020-09-15 14:00:00 26.5 21 Norte 30 Norte 0 1015.9 -- 75
2020-09-15 13:00:00 -- -- -- -- -- -- -- -- --
2020-09-15 12:00:00 25.2 22 Norte 33 Norte 0 1016.4 -- 79
2020-09-15 11:00:00 25.1 21 Norte 26 Norte 0 1016.2 -- 80
2020-09-15 10:00:00 24.5 12 Norte 22 Norte 0 1015.9 -- 79
2020-09-15 09:00:00 24 15 Norte 26 Norte 0 1015.1 -- 78
2020-09-15 08:00:00 24 13 Norte 30 Norte 0 1015 -- 80
2020-09-15 07:00:00 24 13 Norte 32 Norte 0 1014.8 -- 71
2020-09-15 06:00:00 23.9 15 Norte 32 Nordeste 0 1014.8 -- 69
2020-09-15 05:00:00 24 12 Norte 35 Nordeste 0 1014.3 -- 68
2020-09-15 04:00:00 24.2 23 Norte 30 Norte 0 1014.6 -- 75
2020-09-15 03:00:00 24.1 12 Noroeste 22 Norte 0 1015 -- 66
2020-09-15 02:00:00 23.8 12 Oeste 18 Oeste 0 1015.8 -- 73
2020-09-15 01:00:00 24 5 Norte 13 Norte 0 1016.7 -- 81
2020-09-15 00:00:00 24 12 Norte 21 Norte 0 1016.4 -- 80
2020-09-14 23:00:00 24 10 Noroeste 17 Norte 0 1016.6 -- 78
2020-09-14 22:00:00 24.2 10 Norte 13 Norte 0 1015.9 -- 78
2020-09-14 21:00:00 24.4 10 Norte 15 Noroeste 0 1015.3 -- 76
2020-09-14 20:00:00 24.6 11 Norte 15 Norte 0 1015.1 -- 74
2020-09-14 19:00:00 25.1 13 Norte 17 Norte 0 1014.9 -- 74
2020-09-14 18:00:00 25.5 13 Norte 18 Norte 0 1014.8 -- 73
2020-09-14 17:00:00 25.9 13 Norte 21 Norte 0 1014.5 -- 72
2020-09-14 16:00:00 26.7 13 Norte 18 Norte 0 1014.7 -- 68
2020-09-14 15:00:00 27.1 13 Norte 18 Norte 0 1015.6 -- 67
2020-09-14 14:00:00 26.9 14 Norte 18 Norte 0 1015.6 -- 68
2020-09-14 13:00:00 26.3 12 Norte 17 Norte 0 1016.1 -- 70
2020-09-14 12:00:00 26.1 12 Norte 15 Norte 0 1016.1 -- 72
2020-09-14 11:00:00 25.6 10 Norte 15 Norte 0 1016 -- 73
2020-09-14 10:00:00 24.8 8 Norte 13 Norte 0 1015.6 -- 67
2020-09-14 09:00:00 23.2 6 Noroeste 13 Oeste 0 1015.2 -- 70
2020-09-14 08:00:00 20.7 9 Oeste 11 Oeste 0 1014.7 -- 79
2020-09-14 07:00:00 20.6 6 Oeste 13 Oeste 0 1014.4 -- 75
2020-09-14 06:00:00 20.5 6 Oeste 11 Oeste 0 1013.8 -- 77
2020-09-14 05:00:00 20.8 8 Sudoeste 11 Oeste 0 1013.7 -- 80
2020-09-14 04:00:00 21.2 8 Oeste 11 Oeste 0 1013.9 -- 78
2020-09-14 03:00:00 21.6 9 Oeste 13 Oeste 0 1014.1 -- 73
2020-09-14 02:00:00 21.4 9 Oeste 13 Oeste 0 1014.8 -- 72
2020-09-14 01:00:00 22.1 9 Oeste 15 Oeste 0 1015.1 -- 70
2020-09-14 00:00:00 22.5 8 Oeste 13 Oeste 0 1015.5 -- 79
2020-09-13 23:00:00 22.6 9 Oeste 13 Oeste 0 1015.4 -- 78
2020-09-13 22:00:00 23.1 5 Oeste 8 Sudoeste 0 1014.7 -- 81
2020-09-13 21:00:00 23.9 0 Calma 11 Norte 0 1013.9 -- 79
2020-09-13 20:00:00 24.2 9 Nordeste 17 Nordeste 0 1013.3 -- 78
2020-09-13 19:00:00 24.5 13 Nordeste 18 Nordeste 0 1013 -- 78
2020-09-13 18:00:00 24.9 12 Nordeste 17 Nordeste 0 1012.8 -- 76
2020-09-13 17:00:00 25.3 14 Nordeste 21 Norte 0 1012.5 -- 74
2020-09-13 16:00:00 26.8 15 Norte 18 Norte 0 1012.3 -- 69
2020-09-13 15:00:00 25.3 12 Nordeste 26 Sudeste 0 1012.5 -- 75
2020-09-13 14:00:00 25.9 19 Sudeste 33 Sudeste 0 1012.8 -- 71
2020-09-13 13:00:00 25.5 19 Sudeste 32 Sudeste 0 1013.1 -- 74
2020-09-13 12:00:00 25.6 20 Sudeste 32 Sudeste 0 1013.6 -- 72
2020-09-13 11:00:00 25.1 13 Sudeste 21 Sudeste 0 1013.6 -- 74
2020-09-13 10:00:00 24.5 10 Sudeste 24 Oeste 0 1013.1 -- 74
2020-09-13 09:00:00 22.8 4 Sudoeste 13 Sudoeste 0 1012.3 -- 76
2020-09-13 08:00:00 20.9 11 Sudoeste 13 Sudoeste 0 1012.4 -- 78
2020-09-13 07:00:00 20.9 10 Oeste 13 Oeste 0 1012 -- 83
2020-09-13 06:00:00 21.2 9 Oeste 13 Oeste 0 1011.8 -- 79
2020-09-13 05:00:00 22.1 8 Sudoeste 13 Sudoeste 0 1011.9 -- 78
2020-09-13 04:00:00 21.9 8 Oeste 9 Oeste 0 1011.6 -- 82
2020-09-13 03:00:00 22 7 Oeste 13 Oeste 0 1011.9 -- 79
2020-09-13 02:00:00 21.8 10 Sudoeste 13 Oeste 0 1012.3 -- 78
2020-09-13 01:00:00 21.8 9 Oeste 11 Oeste 0 1012.4 -- 80
2020-09-13 00:00:00 22.8 5 Oeste 9 Sudoeste 0 1012.3 -- 79
2020-09-12 23:00:00 23.5 4 Sudeste 9 Este 0 1012.6 -- 80
2020-09-12 22:00:00 23.7 6 Sudeste 9 Este 0 1012.2 -- 79
2020-09-12 21:00:00 23.6 4 Este 8 Norte 0 1011.8 -- 79
2020-09-12 20:00:00 24 4 Este 11 Este 0 1011.4 -- 77
2020-09-12 19:00:00 24.2 4 Nordeste 11 Nordeste 0 1011 -- 75
2020-09-12 18:00:00 24.5 6 Nordeste 11 Este 0 1011.4 -- 73
2020-09-12 17:00:00 24.9 6 Este 11 Este 0 1011.6 -- 72
2020-09-12 16:00:00 24.7 5 Nordeste 13 Sudeste 0 1011.4 -- 74
2020-09-12 15:00:00 24.8 8 Sudeste 15 Sudeste 0 1011.8 -- 72
2020-09-12 14:00:00 24.5 8 Sudeste 15 Este 0 1012.1 -- 75
2020-09-12 13:00:00 25.1 10 Este 13 Este 0 1011.8 -- 71
2020-09-12 12:00:00 24.4 5 Este 11 Este 0 1012.4 -- 75
2020-09-12 11:00:00 24.5 7 Este 9 Este 0 1012.3 -- 74
2020-09-12 10:00:00 24 4 Nordeste 9 Nordeste 0 1011.9 -- 77
2020-09-12 09:00:00 23.3 5 Oeste 11 Oeste 0 1011.6 -- 77
2020-09-12 08:00:00 22.8 4 Norte 22 Nordeste 0 1011.1 -- 80
2020-09-12 07:00:00 23.3 20 Nordeste 26 Nordeste 0 1010.9 -- 80
2020-09-12 06:00:00 23.2 18 Norte 24 Nordeste 0 1010.5 -- 82
2020-09-12 05:00:00 23.2 17 Nordeste 37 Nordeste 0 1010.5 -- 81
2020-09-12 04:00:00 23.4 29 Nordeste 37 Nordeste 0 1010.2 -- 82
2020-09-12 03:00:00 23.5 27 Nordeste 33 Norte 0 1010.8 -- 82
2020-09-12 02:00:00 23.5 26 Norte 39 Nordeste 0 1011.5 -- 81
2020-09-12 01:00:00 23.5 29 Norte 42 Norte 0 1012.1 -- 81
2020-09-12 00:00:00 23.6 28 Norte 41 Nordeste 0 1012.5 -- 80
2020-09-11 23:00:00 23.7 28 Norte 37 Nordeste 0 1012.3 -- 79
2020-09-11 22:00:00 23.7 21 Norte 32 Norte 0 1011.8 -- 78
2020-09-11 21:00:00 23.7 19 Nordeste 26 Norte 0 1011 -- 78
2020-09-11 20:00:00 24 18 Norte 28 Norte 0 1010.9 -- 77
2020-09-11 19:00:00 24.1 20 Nordeste 32 Nordeste 0 1010.8 -- 76
2020-09-11 18:00:00 24.4 28 Nordeste 33 Nordeste 0 1011 -- 77
2020-09-11 17:00:00 25.3 18 Norte 24 Norte 0 1011.3 -- 74
2020-09-11 16:00:00 25.6 15 Norte 24 Norte 0 1011.5 -- 72
2020-09-11 15:00:00 26.3 20 Norte 26 Norte 0 1012 -- 68
2020-09-11 14:00:00 26.8 21 Norte 26 Norte 0 1012.6 -- 66
2020-09-11 13:00:00 25.6 22 Nordeste 32 Nordeste 0 1013.1 -- 70
2020-09-11 12:00:00 25.3 27 Nordeste 33 Nordeste 0 1012.8 -- 73
2020-09-11 11:00:00 24.8 24 Nordeste 32 Nordeste 0 1012.9 -- 74
2020-09-11 10:00:00 24.5 20 Norte 26 Norte 0 1012.7 -- 75
2020-09-11 09:00:00 23.6 14 Noroeste 18 Noroeste 0 1011.8 -- 71
2020-09-11 08:00:00 22.9 12 Noroeste 26 Norte 0 1011.9 -- 80
2020-09-11 07:00:00 23.3 16 Noroeste 24 Noroeste 0 1011.4 -- 74
2020-09-11 06:00:00 23.4 12 Noroeste 30 Noroeste 0 1011.6 -- 71
2020-09-11 05:00:00 23.2 19 Norte 37 Norte 0 1011.9 -- 77
2020-09-11 04:00:00 23.4 31 Norte 41 Norte 0 1012.4 -- 82
2020-09-11 03:00:00 23.3 16 Norte 37 Norte 0 1012.5 -- 75
2020-09-11 02:00:00 23.4 27 Norte 39 Norte 0 1013.1 -- 80
2020-09-11 01:00:00 23.4 26 Norte 33 Norte 0 1013.3 -- 79
2020-09-11 00:00:00 23.3 18 Norte 30 Norte 0 1013.7 -- 79
2020-09-10 23:00:00 23.5 23 Norte 33 Norte 0 1014.1 -- 80
2020-09-10 22:00:00 23.7 29 Norte 39 Norte 0 1013.8 -- 81
2020-09-10 21:00:00 23.7 25 Norte 37 Nordeste 0 1013.4 -- 80
2020-09-10 20:00:00 24 32 Norte 41 Norte 0 1013 -- 78
2020-09-10 19:00:00 24.3 32 Norte 41 Nordeste 0 1012.8 -- 77
2020-09-10 18:00:00 25.1 29 Norte 39 Norte 0 1013.2 -- 74
2020-09-10 17:00:00 25.5 26 Norte 32 Norte 0 1013.6 -- 73
2020-09-10 16:00:00 25.6 26 Norte 32 Norte 0 1013.7 -- 72
2020-09-10 15:00:00 26 26 Norte 32 Norte 0 1013.9 -- 71
2020-09-10 14:00:00 26.9 22 Norte 30 Norte 0 1014.5 -- 68
2020-09-10 13:00:00 26.6 23 Norte 30 Norte 0 1015 -- 67
2020-09-10 12:00:00 26.3 23 Norte 32 Norte 0 1015.6 -- 68
2020-09-10 11:00:00 25.3 26 Norte 33 Norte 0 1016.1 -- 72
2020-09-10 10:00:00 24 23 Norte 32 Norte 0 1016 -- 76
2020-09-10 09:00:00 23.4 23 Norte 33 Norte 0 1015.9 -- 79
2020-09-10 08:00:00 23.2 25 Norte 42 Norte 0 1015.8 -- 79
2020-09-10 07:00:00 23.1 33 Norte 48 Norte 0 1015.6 -- 81
2020-09-10 06:00:00 23.3 41 Norte 52 Norte 0 1015.5 -- 82
2020-09-10 05:00:00 23.3 38 Norte -- -- -- 1015 -- 83
2020-09-10 04:00:00 -- -- -- -- -- -- -- -- --
2020-09-10 03:00:00 23.3 32 Norte 41 Norte 0 1015.5 -- 86
2020-09-10 02:00:00 23.4 26 Norte 35 Norte 0 1016 -- 87
2020-09-10 01:00:00 23.5 24 Norte 33 Norte 0 1016.5 -- 88
2020-09-10 00:00:00 23.7 27 Norte 39 Nordeste 0 1016.6 -- 87
2020-09-09 23:00:00 23.7 22 Norte 32 Norte 0 1016.6 -- 88
2020-09-09 22:00:00 23.9 23 Norte 35 Norte 0 1015.9 -- 87
2020-09-09 21:00:00 24.1 28 Norte 41 Norte 0 1015.2 -- 87
2020-09-09 20:00:00 24.5 28 Norte 37 Norte 0 1014.4 -- 85
2020-09-09 19:00:00 25.5 20 Norte 28 Norte 0 1014.1 -- 79
2020-09-09 18:00:00 26.5 17 Norte 24 Norte 0 1014 -- 76
2020-09-09 17:00:00 26.9 17 Norte 24 Norte 0 1014.1 -- 74
2020-09-09 16:00:00 26.8 17 Norte 26 Norte 0 1014.5 -- 74
2020-09-09 15:00:00 27.1 21 Norte 30 Norte 0 1014.9 -- 73
2020-09-09 14:00:00 26.9 24 Norte 35 Norte 0 1015.6 -- 73
2020-09-09 13:00:00 26.7 26 Norte 33 Norte 0 1016 -- 74
2020-09-09 12:00:00 26.3 24 Norte 35 Norte 0 1016.1 -- 76
2020-09-09 11:00:00 25.7 21 Norte 37 Norte 0 1015.9 -- 79
2020-09-09 10:00:00 25.1 27 Norte 39 Norte 0 1015.1 -- 82
2020-09-09 09:00:00 24.4 23 Norte 33 Norte 0 1014.6 -- 80
2020-09-09 08:00:00 23.4 22 Norte 28 Norte 0 1014.2 -- 88
2020-09-09 07:00:00 23 13 Norte 35 Norte 0 1013.6 -- 87
2020-09-09 06:00:00 23.4 23 Norte 35 Norte 0 1013.1 -- 91
2020-09-09 05:00:00 24.2 14 Norte 22 Norte 0 1013 -- 74
2020-09-09 04:00:00 23.4 10 Norte 35 Norte 0 1013 -- 83
2020-09-09 03:00:00 23.5 28 Norte 37 Norte 0 1013.2 -- 92
2020-09-09 02:00:00 23.8 26 Norte 33 Norte 0 1013.6 -- 90
2020-09-09 01:00:00 23.7 20 Norte 33 Norte 0 1014.1 -- 87
2020-09-09 00:00:00 23.8 27 Norte 37 Norte 0 1014.1 -- 91
2020-09-08 23:00:00 24.1 27 Norte 39 Norte 0 1014.1 -- 90
2020-09-08 22:00:00 24.3 17 Norte 30 Norte 0 1013.5 -- 85
2020-09-08 21:00:00 24.5 23 Norte 30 Norte 0 1012.8 -- 85
2020-09-08 20:00:00 24.8 15 Noroeste 24 Norte 0 1012.3 -- 85
2020-09-08 19:00:00 25.6 17 Norte 24 Norte 0 1011.8 -- 83
2020-09-08 18:00:00 26.4 21 Norte 30 Norte 0 1011.7 -- 77
2020-09-08 17:00:00 27.8 17 Norte 30 Norte 0 1011.7 -- 67
2020-09-08 16:00:00 27.9 18 Norte 26 Norte 0 1011.9 -- 67
2020-09-08 15:00:00 27.5 20 Norte 28 Norte 0 1012.1 -- 73
2020-09-08 14:00:00 26.9 20 Norte 30 Norte 0 1012.5 -- 76
2020-09-08 13:00:00 26.8 20 Norte 30 Norte 0 1012.6 -- 76
2020-09-08 12:00:00 26.9 19 Norte 30 Norte 0 1013 -- 76
2020-09-08 11:00:00 25.8 23 Norte 37 Norte 0 1012.6 -- 81
2020-09-08 10:00:00 24.6 25 Norte 39 Norte 0 1012.3 -- 87
2020-09-08 09:00:00 23.8 27 Norte 41 Norte 0 1011.6 -- 91
2020-09-08 08:00:00 23.5 20 Norte 37 Norte 0 1011.1 -- 92
2020-09-08 07:00:00 23.5 21 Norte 30 Norte 0 1010.7 -- 92
2020-09-08 06:00:00 23.6 18 Norte 28 Norte 0 1010.3 -- 91
2020-09-08 05:00:00 24.2 22 Norte 30 Norte 0 1010.1 -- 86
2020-09-08 04:00:00 24.9 18 Norte 22 Norte 0 1010.1 -- 71
2020-09-08 03:00:00 25.5 17 Norte 22 Norte 0 1010.6 -- 70
2020-09-08 02:00:00 28.8 13 Oeste 21 Oeste 0 1010.8 -- 26
2020-09-08 01:00:00 27.9 14 Noroeste 18 Oeste 0 1011.3 -- 24
2020-09-08 00:00:00 26.1 10 Norte 22 Noroeste 0 1011.8 -- 45
2020-09-07 23:00:00 26.4 15 Norte 24 Noroeste 0 1011.5 -- 45
2020-09-07 22:00:00 25.4 13 Noroeste 21 Noroeste 0 1011.5 -- 55
2020-09-07 21:00:00 24.1 17 Norte 22 Norte 0 1011 -- 86
2020-09-07 20:00:00 24.2 14 Noroeste 24 Norte 0 1010.6 -- 82
2020-09-07 19:00:00 24.6 18 Norte 26 Norte 0 1010.4 -- 83
2020-09-07 18:00:00 24.9 19 Norte 28 Norte 0 1010.3 -- 82
2020-09-07 17:00:00 25.2 17 Norte 22 Norte 0 1010 -- 80
2020-09-07 16:00:00 25.7 17 Norte 22 Norte 0 1009.9 -- 77
2020-09-07 15:00:00 26.7 14 Norte 18 Norte 0 1010.1 -- 73
2020-09-07 14:00:00 24.7 13 Norte 18 Norte 0 1009.9 -- 80
2020-09-07 13:00:00 25.4 13 Norte 18 Norte 0 1010.4 -- 79
2020-09-07 12:00:00 23.8 16 Norte 22 Noroeste 0 1010.2 -- 83
2020-09-07 11:00:00 23.1 12 Noroeste 18 Noroeste 0 1010.3 -- 79
2020-09-07 10:00:00 22.5 11 Oeste 17 Oeste 0 1010 -- 82
2020-09-07 09:00:00 23.1 9 Noroeste 17 Oeste 0.1 1010 -- 79
2020-09-07 08:00:00 22.3 11 Oeste 17 Noroeste 0 1009.2 -- 72
2020-09-07 07:00:00 22.1 13 Oeste 17 Noroeste 0 1009 -- 75
2020-09-07 06:00:00 21.8 10 Oeste 15 Oeste 0 1009.4 -- 80
2020-09-07 05:00:00 21.9 13 Oeste 17 Oeste 0 1009.4 -- 79
2020-09-07 04:00:00 21.8 13 Oeste 21 Oeste 0 1008.6 -- 75
2020-09-07 03:00:00 22 13 Oeste 18 Oeste 0 1009.1 -- 76
2020-09-07 02:00:00 22.1 10 Oeste 15 Oeste 0 1009.7 -- 79
2020-09-07 01:00:00 22.7 8 Noroeste 17 Noroeste 0 1009.7 -- 76
2020-09-07 00:00:00 23 10 Noroeste 18 Noroeste 0 1009.4 -- 76
2020-09-06 23:00:00 23.2 9 Norte 24 Norte 0 1009.1 -- 76
2020-09-06 22:00:00 23.6 19 Norte 24 Norte 0 1008.6 -- 78
2020-09-06 21:00:00 23.8 13 Norte 17 Norte 0 1008.1 -- 75
2020-09-06 20:00:00 24.2 11 Norte 17 Norte 0 1007.9 -- 74
2020-09-06 19:00:00 24.6 10 Norte 13 Norte 0 1007.7 -- 72
2020-09-06 18:00:00 24.8 9 Nordeste 17 Nordeste 0 1008.1 -- 71
2020-09-06 17:00:00 25.5 9 Norte 13 Nordeste 0 1008.1 -- 68
2020-09-06 16:00:00 25.7 9 Norte 15 Nordeste 0 1008.4 -- 67
2020-09-06 15:00:00 25.8 9 Nordeste 17 Nordeste 0 1008.6 -- 69
2020-09-06 14:00:00 25.5 7 Nordeste 17 Nordeste 0 1009.3 -- 69
2020-09-06 13:00:00 25.9 11 Norte 15 Nordeste 0 1009.1 -- 68
2020-09-06 12:00:00 25.4 11 Nordeste 15 Nordeste 0 1009.5 -- 69
2020-09-06 11:00:00 24.8 4 Nordeste 11 Norte 0 1009.5 -- 69
2020-09-06 10:00:00 23.5 0 Calma 13 Noroeste 0 1009 -- 71
2020-09-06 09:00:00 22.5 4 Oeste 13 Oeste 0 1008.3 -- 73
2020-09-06 08:00:00 20.2 10 Sudoeste 13 Oeste 0 1008.5 -- 79
2020-09-06 07:00:00 20.5 12 Oeste 15 Oeste 0 1008.5 -- 77
2020-09-06 06:00:00 20.6 11 Sudoeste 15 Sudoeste 0 1008.4 -- 78
2020-09-06 05:00:00 20.5 7 Oeste 11 Oeste 0 1008.5 -- 77
2020-09-06 04:00:00 21.2 9 Oeste 17 Sudoeste 0 1008.8 -- 78
2020-09-06 03:00:00 21.4 9 Sudoeste 15 Sudoeste 0 1009.6 -- 79
2020-09-06 02:00:00 21.8 9 Oeste 17 Oeste 0 1010.3 -- 78
2020-09-06 01:00:00 22.9 12 Norte 22 Oeste 0 1010.7 -- 76
2020-09-06 00:00:00 22.3 11 Oeste 21 Oeste 0 1010.5 -- 74
2020-09-05 23:00:00 22.6 12 Sudoeste 28 Sur 0 1010.5 -- 74
2020-09-05 22:00:00 23.3 12 Sur 21 Sur 0 1009.5 -- 73
2020-09-05 21:00:00 23.8 13 Sur 18 Sur 0 1009.2 -- 73
2020-09-05 20:00:00 24.1 0 Calma 11 Sudoeste 0 1009.1 -- 72
2020-09-05 19:00:00 24.5 0 Calma 13 Este 0 1009.9 -- 71
2020-09-05 18:00:00 24.5 10 Nordeste 17 Nordeste 0 1010.4 -- 74
2020-09-05 17:00:00 24.9 14 Norte 18 Nordeste 0 1010.9 -- 72
2020-09-05 16:00:00 25.4 9 Norte 15 Nordeste 0 1011.3 -- 69
2020-09-05 15:00:00 25.3 10 Nordeste 15 Nordeste 0 1011.8 -- 69
2020-09-05 14:00:00 25.3 11 Nordeste 18 Nordeste 0 1012.8 -- 69
2020-09-05 13:00:00 25.2 16 Nordeste 22 Este 0 1013.5 -- 70
2020-09-05 12:00:00 25.2 14 Nordeste 28 Nordeste 0 1013.4 -- 68
2020-09-05 11:00:00 25.2 14 Nordeste 24 Nordeste 0 1013.4 -- 68
2020-09-05 10:00:00 24.8 5 Sudeste 9 Sudeste 0 1013.3 -- 66
2020-09-05 09:00:00 22.6 2 Norte 13 Sudoeste 0 1013.2 -- 73
2020-09-05 08:00:00 21.2 9 Sudoeste 13 Sudoeste 0 1012.8 -- 79
2020-09-05 07:00:00 21.4 10 Sudoeste 15 Sudoeste 0 1012.5 -- 78
2020-09-05 06:00:00 21.3 11 Sudoeste 13 Oeste 0 1012 -- 77
2020-09-05 05:00:00 21.7 10 Sudoeste 15 Sudoeste 0 1012.2 -- 78
2020-09-05 04:00:00 21.6 9 Sudoeste 13 Sudoeste 0 1012.9 -- 81
2020-09-05 03:00:00 22.2 7 Oeste 11 Oeste 0 1013.3 -- 80
2020-09-05 02:00:00 22.4 9 Sudoeste 21 Nordeste 0 1013.6 -- 80
2020-09-05 01:00:00 23.3 21 Nordeste 32 Norte 0 1014.3 -- 80
2020-09-05 00:00:00 23.5 21 Nordeste 28 Nordeste 0 1014.9 -- 80
2020-09-04 23:00:00 23.6 21 Nordeste 30 Nordeste 0 1014.8 -- 80
2020-09-04 22:00:00 23.6 17 Nordeste 22 Nordeste 0 1014.4 -- 80
2020-09-04 21:00:00 23.8 9 Norte 17 Norte 0 1014.2 -- 78
2020-09-04 20:00:00 24.1 11 Norte 17 Norte 0 1013.6 -- 75
2020-09-04 19:00:00 24.3 7 Nordeste 13 Nordeste 0 1013.7 -- 74
2020-09-04 18:00:00 25.1 10 Norte 15 Norte 0 1013.6 -- 71
2020-09-04 17:00:00 25.3 12 Nordeste 17 Norte 0 1013.8 -- 69
2020-09-04 16:00:00 25.8 12 Norte 17 Norte 0 1014.1 -- 66
2020-09-04 15:00:00 25.7 12 Norte 21 Nordeste 0 1014.5 -- 67
2020-09-04 14:00:00 25.7 16 Nordeste 22 Norte 0 1014.8 -- 67
2020-09-04 13:00:00 26.1 17 Norte 26 Norte 0 1015.1 -- 67
2020-09-04 12:00:00 25.8 22 Norte 30 Norte 0 1015.1 -- 66
2020-09-04 11:00:00 25.2 23 Norte 30 Norte 0 1015.1 -- 67
2020-09-04 10:00:00 24.5 18 Norte 26 Norte 0 1014.5 -- 67
2020-09-04 09:00:00 22.6 13 Norte 21 Norte 0 1014.4 -- 72
2020-09-04 08:00:00 21.6 8 Oeste 18 Noroeste 0 1014 -- 75
2020-09-04 07:00:00 21.8 11 Noroeste 21 Noroeste 0 1013.1 -- 75
2020-09-04 06:00:00 21.9 8 Noroeste 18 Norte 0 1012.7 -- 75
2020-09-04 05:00:00 22.3 11 Noroeste 18 Noroeste 0 1012 -- 73
2020-09-04 04:00:00 22.7 12 Noroeste 21 Noroeste 0 1012.2 -- 72
2020-09-04 03:00:00 22.9 12 Noroeste 21 Noroeste 0 1012.3 -- 72
2020-09-04 02:00:00 23 12 Norte 24 Norte 0 1012.7 -- 73
2020-09-04 01:00:00 23.3 15 Norte 21 Norte 0 1012.8 -- 75
2020-09-04 00:00:00 23.7 13 Norte 21 Nordeste 0 1013.2 -- 72
2020-09-03 23:00:00 23.5 13 Norte 24 Norte 0 1013 -- 75
2020-09-03 22:00:00 23.6 18 Nordeste 24 Nordeste 0 1012.1 -- 76
2020-09-03 21:00:00 23.5 20 Nordeste 24 Nordeste 0 1011.2 -- 78
2020-09-03 20:00:00 23.8 18 Nordeste 30 Nordeste 0 1010.9 -- 77
2020-09-03 19:00:00 24.4 17 Norte 24 Nordeste 0 1010.7 -- 75
2020-09-03 18:00:00 24.9 17 Nordeste 22 Nordeste 0 1010.7 -- 73
2020-09-03 17:00:00 25.7 17 Nordeste 21 Nordeste 0 1010.7 -- 71
2020-09-03 16:00:00 26.6 13 Norte 18 Norte 0 1010.8 -- 65
2020-09-03 15:00:00 26.3 13 Norte 18 Norte 0 1011.2 -- 67
2020-09-03 14:00:00 25.8 15 Nordeste 18 Nordeste 0 1011.6 -- 68
2020-09-03 13:00:00 26 14 Norte 22 Norte 0 1011.7 -- 71
2020-09-03 12:00:00 26.4 16 Norte 21 Norte 0 1011.5 -- 68
2020-09-03 11:00:00 25.4 17 Norte 21 Nordeste 0 1011.3 -- 71
2020-09-03 10:00:00 24.4 14 Norte 26 Norte 0 1011 -- 69
2020-09-03 09:00:00 22.7 13 Noroeste 24 Oeste 0 1010.4 -- 71
2020-09-03 08:00:00 21.6 14 Oeste 21 Noroeste 0 1010 -- 75
2020-09-03 07:00:00 21.4 13 Noroeste 18 Noroeste 0 1009.7 -- 78
2020-09-03 06:00:00 21.5 12 Noroeste 18 Noroeste 0 1009.1 -- 80
2020-09-03 05:00:00 21.3 13 Noroeste 18 Noroeste 0 1008.9 -- 82
2020-09-03 04:00:00 21.1 11 Noroeste 17 Noroeste 0 1009.2 -- 83
2020-09-03 03:00:00 21.1 13 Noroeste 17 Noroeste 0 1009.6 -- 81
2020-09-03 02:00:00 21.3 13 Oeste 18 Oeste 0 1009.8 -- 78
2020-09-03 01:00:00 21.4 12 Noroeste 15 Noroeste 0 1010.1 -- 73
2020-09-03 00:00:00 21.7 11 Noroeste 17 Noroeste 0 1010.5 -- 70
2020-09-02 23:00:00 21.8 13 Oeste 18 Noroeste 0 1010.4 -- 62
2020-09-02 22:00:00 22.4 12 Noroeste 21 Norte 0 1009.9 -- 68
2020-09-02 21:00:00 23 12 Norte 22 Norte 0 1009.4 -- 80
2020-09-02 20:00:00 23.6 16 Norte 22 Norte 0 1009.4 -- 81
2020-09-02 19:00:00 24.5 13 Norte 22 Norte 0 1009.2 -- 76
2020-09-02 18:00:00 25.4 14 Norte 24 Nordeste 0 1009.2 -- 72
2020-09-02 17:00:00 24.8 21 Nordeste 26 Nordeste 0 1009.2 -- 77
2020-09-02 16:00:00 25.1 19 Norte 24 Nordeste 0 1009.3 -- 74
2020-09-02 15:00:00 25.3 21 Nordeste 26 Nordeste 0 1009.4 -- 75
2020-09-02 14:00:00 25 18 Nordeste 26 Nordeste 0 1009.6 -- 72
2020-09-02 13:00:00 24.6 15 Norte 22 Norte 0 1009.9 -- 76
2020-09-02 12:00:00 24 18 Norte 24 Norte 0 1009.9 -- 81
2020-09-02 11:00:00 24 18 Norte 22 Norte 0 1009.9 -- 82
2020-09-02 10:00:00 24.1 13 Norte 18 Norte 0 1009.4 -- 82
2020-09-02 09:00:00 23.8 14 Noroeste 24 Oeste 0 1009 -- 68
2020-09-02 08:00:00 22.7 15 Oeste 18 Oeste 0 1008.6 -- 73
2020-09-02 07:00:00 22.4 13 Oeste 21 Oeste 0 1008.4 -- 73
2020-09-02 06:00:00 22.3 14 Oeste 26 Oeste 0 1008.2 -- 72
2020-09-02 05:00:00 22 15 Oeste 21 Oeste 0 1008.6 -- 73
2020-09-02 04:00:00 22.2 13 Noroeste 21 Oeste 0 1008.7 -- 68
2020-09-02 03:00:00 22.5 15 Oeste 22 Oeste 0 1008.9 -- 70
2020-09-02 02:00:00 22.7 15 Oeste 21 Oeste 0 1009.6 -- 71
2020-09-02 01:00:00 23.2 14 Norte 21 Norte 0 1009.9 -- 87
2020-09-02 00:00:00 23.4 15 Norte 21 Nordeste 0 1010.2 -- 87
2020-09-01 23:00:00 23.5 15 Norte 24 Norte 0 1010.2 -- 87
2020-09-01 22:00:00 23.5 15 Norte 21 Norte 0 1009.6 -- 86
2020-09-01 21:00:00 23.6 17 Norte 22 Norte 0 1009.1 -- 86
2020-09-01 20:00:00 23.8 13 Norte 21 Norte 0 1009 -- 85
2020-09-01 19:00:00 24.1 14 Norte 22 Norte 0 1008.8 -- 84
2020-09-01 18:00:00 24.4 15 Norte 22 Norte 0 1008.9 -- 82
2020-09-01 17:00:00 24.3 17 Norte 22 Norte 0 1009.1 -- 82
2020-09-01 16:00:00 24.6 17 Norte 22 Norte 0 1009.2 -- 80
2020-09-01 15:00:00 24.9 16 Norte 24 Norte 0 1009.8 -- 79
2020-09-01 14:00:00 25.3 18 Norte 22 Norte 0 1010.1 -- 77
2020-09-01 13:00:00 24.8 19 Nordeste 24 Nordeste 0 1010.4 -- 78
2020-09-01 12:00:00 24.4 19 Norte 24 Norte 0 1010.5 -- 79
2020-09-01 11:00:00 24.4 19 Norte 24 Norte 0 1010.1 -- 76
2020-09-01 10:00:00 24.4 17 Norte 22 Norte 0 1009.9 -- 72
2020-09-01 09:00:00 23.3 9 Norte 15 Noroeste 0 1009.5 -- 61
2020-09-01 08:00:00 22.2 10 Noroeste 18 Noroeste 0 1009.2 -- 65
2020-09-01 07:00:00 22.7 12 Norte 22 Norte 0 1009.1 -- 73
2020-09-01 06:00:00 22.6 9 Noroeste 18 Noroeste 0 1009.2 -- 62
2020-09-01 05:00:00 22.3 12 Noroeste 18 Noroeste 0 1009.2 -- 66
2020-09-01 04:00:00 22.3 13 Noroeste 24 Noroeste 0 1009.2 -- 65
2020-09-01 03:00:00 22.8 14 Noroeste 26 Norte 0 1009.7 -- 59
2020-09-01 02:00:00 22.8 15 Noroeste 30 Norte 0 1010.1 -- 57
2020-09-01 01:00:00 22.9 21 Norte 32 Norte 0 1010.5 -- 64
2020-09-01 00:00:00 22 12 Norte 35 Noroeste 0 1010.6 -- 68
2020-08-31 23:00:00 22.4 14 Noroeste 32 Norte 0 1010.2 -- 71
2020-08-31 22:00:00 22.7 24 Norte 35 Norte 0 1009.8 -- 75
2020-08-31 21:00:00 22.9 27 Norte 35 Norte 0 1009.4 -- 73
2020-08-31 20:00:00 23 28 Norte 39 Norte 0 1009.3 -- 72
2020-08-31 19:00:00 23.2 31 Norte 39 Norte 0 1009 -- 72
2020-08-31 18:00:00 23.8 31 Norte 41 Norte 0 1008.8 -- 69
2020-08-31 17:00:00 24.2 33 Norte 39 Norte 0 1009.2 -- 66
2020-08-31 16:00:00 24.4 32 Norte 39 Norte 0 1009.5 -- 64
2020-08-31 15:00:00 24.6 27 Nordeste 35 Nordeste 0 1010 -- 63
2020-08-31 14:00:00 25.1 27 Norte 35 Norte 0 1010.4 -- 61
2020-08-31 13:00:00 25.4 26 Norte 35 Nordeste 0 1011 -- 59
2020-08-31 12:00:00 25 27 Nordeste 33 Nordeste 0 1011 -- 61
2020-08-31 11:00:00 24.7 28 Norte 35 Norte 0 1010.6 -- 61
2020-08-31 10:00:00 23.4 28 Norte 35 Norte 0 1010.2 -- 70
2020-08-31 09:00:00 23.2 27 Norte 35 Norte 0 1009.8 -- 68
2020-08-31 08:00:00 22.5 25 Norte 35 Norte 0 1009.2 -- 72
2020-08-31 07:00:00 22.3 22 Norte 33 Norte 0 1009.1 -- 67
2020-08-31 06:00:00 22.2 25 Norte 37 Norte 0 1008.9 -- 65
2020-08-31 05:00:00 22.5 23 Norte 39 Norte 0 1008.8 -- 68
2020-08-31 04:00:00 22.4 24 Norte 35 Norte 0 1009.1 -- 66
2020-08-31 03:00:00 22.3 24 Noroeste 39 Norte 0 1009.4 -- 60
2020-08-31 02:00:00 22.5 23 Norte 37 Norte 0 1009.8 -- 65
2020-08-31 01:00:00 22.5 29 Norte 39 Norte 0 1010.1 -- 67
2020-08-31 00:00:00 22.9 35 Norte 46 Norte 0 1010.3 -- 67
2020-08-30 23:00:00 22.9 34 Norte 46 Norte 0 1010.1 -- 69
2020-08-30 22:00:00 22.9 27 Norte 37 Norte 0 1009.5 -- 69
2020-08-30 21:00:00 23.1 23 Norte 33 Norte 0 1009.3 -- 66
2020-08-30 20:00:00 23.2 25 Norte 39 Norte 0 1008.9 -- 62
2020-08-30 19:00:00 23.9 31 Norte 41 Norte 0 1008.7 -- 61
2020-08-30 18:00:00 23.9 31 Norte 46 Nordeste 0 1008.7 -- 65
2020-08-30 17:00:00 24.7 31 Norte 41 Norte 0 1008.8 -- 65
2020-08-30 16:00:00 25.6 22 Norte 54 Norte 0 1009 -- 59
2020-08-30 15:00:00 23.5 35 Norte 52 Norte 0 1009.4 -- 70
2020-08-30 14:00:00 26.4 30 Norte 41 Norte 0 1009.5 -- 55
2020-08-30 13:00:00 26.4 24 Norte 37 Norte 0 1009.7 -- 47
2020-08-30 12:00:00 25.7 29 Norte 50 Norte 0 1010.1 -- 52
2020-08-30 11:00:00 24.4 44 Norte 54 Nordeste 0 1009.3 -- 59
2020-08-30 10:00:00 24 39 Norte 50 Norte 0 1008.7 -- 70
2020-08-30 09:00:00 22.9 40 Norte 50 Norte 0 1008.8 -- 71
2020-08-30 08:00:00 22.9 35 Norte 42 Norte 0 1008.4 -- 76
2020-08-30 07:00:00 22 22 Norte 61 Norte 0 1008.2 -- 72
2020-08-30 06:00:00 23.4 36 Norte 45 Norte 0 1007.6 -- 61
2020-08-30 05:00:00 22.9 31 Norte 45 Norte 0 1008 -- 61
2020-08-30 04:00:00 22.6 30 Norte 46 Norte 0 1008.4 -- 67
2020-08-30 03:00:00 22.9 36 Norte 45 Norte 0 1008.8 -- 72
2020-08-30 02:00:00 22.6 33 Norte 48 Norte 0 1009.3 -- 79
2020-08-30 01:00:00 23.2 24 Norte 42 Norte 0 1009.9 -- 65
2020-08-30 00:00:00 22.9 27 Norte 50 Norte 0 1010 -- 76
2020-08-29 23:00:00 23.5 27 Norte 39 Norte 0 1009.8 -- 72
2020-08-29 22:00:00 23.6 26 Norte 41 Norte 0 1009.6 -- 73
2020-08-29 21:00:00 23.3 33 Norte 48 Nordeste 0 1009 -- 78
2020-08-29 20:00:00 23.6 40 Norte 50 Norte 0 1008.5 -- 80
2020-08-29 19:00:00 24.1 39 Norte 48 Nordeste 0 1008.4 -- 79
2020-08-29 18:00:00 24.8 39 Norte 50 Norte 0 1008.2 -- 79
2020-08-29 17:00:00 24.3 36 Norte 54 Norte 0 1008.5 -- 78
2020-08-29 16:00:00 25.1 35 Norte 65 Nordeste 0 1008.9 -- 79
2020-08-29 15:00:00 25.4 39 Nordeste 46 Nordeste 0 1008.8 -- 79
2020-08-29 14:00:00 26.1 34 Nordeste 41 Nordeste 0 1009.4 -- 69
2020-08-29 13:00:00 27.7 25 Norte 45 Nordeste 0 1010.2 -- 59
2020-08-29 12:00:00 27 30 Norte 45 Norte 0 1010.4 -- 60
2020-08-29 11:00:00 26.2 28 Norte 41 Nordeste 0 1010.6 -- 61
2020-08-29 10:00:00 25 26 Norte 42 Norte 0 1010.6 -- 68
2020-08-29 09:00:00 23.8 36 Norte 46 Norte 0 1010.4 -- 73
2020-08-29 08:00:00 23.3 29 Norte 45 Norte 0 1010.2 -- 75
2020-08-29 07:00:00 23.1 31 Norte 45 Norte 0 1010 -- 78
2020-08-29 06:00:00 23 27 Norte 41 Norte 0 1009.8 -- 75
2020-08-29 05:00:00 22.7 27 Norte 45 Norte 0 1009.8 -- 79
2020-08-29 04:00:00 23 28 Norte 42 Norte 0 1010 -- 80
2020-08-29 03:00:00 23 30 Norte 42 Norte 0 1010.5 -- 79
2020-08-29 02:00:00 23.3 32 Norte 46 Norte 0 1011.1 -- 81
2020-08-29 01:00:00 23.3 32 Norte 41 Norte 0 1011.3 -- 83
2020-08-29 00:00:00 23.4 30 Norte 37 Norte 0 1011.7 -- 83
2020-08-28 23:00:00 23.6 27 Norte 35 Norte 0 1011.9 -- 85
2020-08-28 22:00:00 23.7 27 Norte 35 Norte 0 1011.6 -- 86
2020-08-28 21:00:00 24 27 Norte 35 Norte 0 1011.3 -- 86
2020-08-28 20:00:00 24.3 24 Norte 35 Norte 0 1011.1 -- 84
2020-08-28 19:00:00 25.6 17 Noroeste 30 Noroeste 0 1011.1 -- 77
2020-08-28 18:00:00 26.1 17 Norte 33 Noroeste 0 1010.9 -- 75
2020-08-28 17:00:00 26.4 19 Norte 32 Norte 0 1011 -- 72
2020-08-28 16:00:00 26.7 18 Norte 32 Norte 0 1011.1 -- 70
2020-08-28 15:00:00 26.7 21 Norte 39 Norte 0 1011.4 -- 73
2020-08-28 14:00:00 26.9 21 Noroeste 35 Noroeste -- 1011.6 -- 72
2020-08-28 13:00:00 27.3 20 Norte 32 Norte -- 1011.8 -- 70
2020-08-28 12:00:00 26.4 21 Norte 28 Norte -- 1012.3 -- 75
2020-08-28 11:00:00 26.8 17 Norte 30 Nordeste -- 1012 -- 72
2020-08-28 10:00:00 26.3 16 Norte 30 Norte 0 1012 -- 68
2020-08-28 09:00:00 25.6 14 Norte 30 Norte 0 1011.8 -- 67
2020-08-28 08:00:00 25.6 19 Norte 30 Norte 0 1011.4 -- 61
2020-08-28 07:00:00 25.6 15 Norte 26 Norte 0 1011.1 -- 58
2020-08-28 06:00:00 23.8 17 Norte 28 Norte 0 1011.1 -- 85
2020-08-28 05:00:00 24.8 16 Norte 30 Norte 0 1011 -- 75
2020-08-28 04:00:00 25 15 Norte 28 Noroeste 0 1011 -- 70
2020-08-28 03:00:00 25.2 15 Norte 26 Norte 0 1011.4 -- 70
2020-08-28 02:00:00 25.6 15 Norte 26 Norte 0 1011.7 -- 65
2020-08-28 01:00:00 26.6 14 Norte 22 Norte 0 1012.3 -- 57
2020-08-28 00:00:00 26 16 Norte 32 Noroeste 0 1012.8 -- 65
2020-08-27 23:00:00 25.4 18 Norte 30 Noroeste 0 1012.9 -- 75
2020-08-27 22:00:00 25.7 18 Norte 32 Noroeste 0 1012.7 -- 74
2020-08-27 21:00:00 26 23 Noroeste 30 Noroeste 0 1012.2 -- 73
2020-08-27 20:00:00 26.4 19 Norte 28 Norte 0 1012.2 -- 74
2020-08-27 19:00:00 27 16 Norte 26 Noroeste 0 1012 -- 73
2020-08-27 18:00:00 28.9 18 Norte 30 Norte 0 1011.5 -- 58
2020-08-27 17:00:00 28.7 20 Norte 30 Noroeste 0 1011.7 -- 63
2020-08-27 16:00:00 27.9 20 Norte 30 Norte 0 1012 -- 70
2020-08-27 15:00:00 28 15 Norte 26 Norte 0 1012.3 -- 72
2020-08-27 14:00:00 27.9 19 Norte 32 Norte 0 1012.4 -- 75
2020-08-27 13:00:00 27.4 19 Norte 26 Norte 0 1012.8 -- 78
2020-08-27 12:00:00 26.5 13 Norte 21 Norte 0 1013 -- 82
2020-08-27 11:00:00 25.8 16 Norte 26 Norte 0 1012.5 -- 84
2020-08-27 10:00:00 24.8 14 Norte 22 Norte 0 1012.3 -- 90
2020-08-27 09:00:00 24.3 16 Norte 22 Norte 0 1012 -- 91
2020-08-27 08:00:00 23.7 12 Noroeste 18 Norte 0 1011.7 -- 93
2020-08-27 07:00:00 23.7 5 Noroeste 21 Noroeste 0 1011.1 -- 93
2020-08-27 06:00:00 23.7 16 Norte 28 Norte 0 1011.7 -- 94
2020-08-27 05:00:00 23.8 18 Norte 28 Norte 0 1011 -- 94
2020-08-27 04:00:00 23.9 13 Norte 26 Noroeste 0 1011.4 -- 93
2020-08-27 03:00:00 24.1 10 Norte 21 Norte 0 1010.7 -- 91
2020-08-27 02:00:00 24.3 13 Norte 22 Norte 0 1011.6 -- 90
2020-08-27 01:00:00 24.3 14 Norte 21 Norte 0 1011.6 -- 89
2020-08-27 00:00:00 24.6 14 Norte 22 Norte 0 1011.8 -- 88
2020-08-26 23:00:00 24.7 14 Norte 21 Norte 0 1011.7 -- 86
2020-08-26 22:00:00 25.1 14 Norte 21 Norte 0 1011 -- 84
2020-08-26 21:00:00 25.3 13 Norte 24 Norte 0 1010.8 -- 83
2020-08-26 20:00:00 25.5 15 Norte 21 Norte 0 1010.1 -- 81
2020-08-26 19:00:00 26.2 13 Norte 22 Norte 0 1009.8 -- 78
2020-08-26 18:00:00 26.8 14 Norte 22 Norte 0 1009.9 -- 75
2020-08-26 17:00:00 26.9 16 Norte 24 Norte 0 1009.5 -- 75
2020-08-26 16:00:00 26.6 16 Norte 26 Norte 0 1009.9 -- 76
2020-08-26 15:00:00 26.3 18 Norte 26 Norte 0 1009.6 -- 79
2020-08-26 14:00:00 26.1 18 Norte 28 Norte 0 1010 -- 80
2020-08-26 13:00:00 25.9 21 Norte 30 Norte 0 1009.7 -- 80
2020-08-26 12:00:00 26 19 Norte 30 Norte 0 1009.7 -- 79
2020-08-26 11:00:00 24.9 19 Norte 32 Norte 0 1010.4 -- 83
2020-08-26 10:00:00 24.3 24 Norte 30 Norte 0 1009 -- 85
2020-08-26 09:00:00 23.5 17 Norte 30 Norte 0 1008.8 -- 88
2020-08-26 08:00:00 23.1 22 Norte 30 Norte 0 1008.2 -- 86
2020-08-26 07:00:00 22.9 23 Norte 30 Norte 0 1007.7 -- 81
2020-08-26 06:00:00 22.9 19 Noroeste 30 Norte 0 1008.4 -- 84
2020-08-26 05:00:00 23.3 22 Norte 33 Norte 0 1008.5 -- 85
2020-08-26 04:00:00 23.2 17 Norte 37 Nordeste 0 1008.3 -- 81
2020-08-26 03:00:00 23 21 Norte 33 Norte 0 1008.6 -- 84
2020-08-26 02:00:00 23.1 16 Norte 32 Norte 0 1009 -- 85
2020-08-26 01:00:00 23 17 Norte 32 Norte 0 1009 -- 84
2020-08-26 00:00:00 23.4 22 Norte 35 Norte 0 1009.6 -- 84
2020-08-25 23:00:00 23.4 26 Norte 33 Norte 0 1009.4 -- 82
2020-08-25 22:00:00 23.4 30 Norte 41 Norte 0 1008.9 -- 84
2020-08-25 21:00:00 23.7 28 Norte 45 Nordeste 0 1008.4 -- 83
2020-08-25 20:00:00 23.9 28 Norte 41 Norte 0 1008 -- 83
2020-08-25 19:00:00 24.2 32 Norte 41 Norte 0 1007.9 -- 82
2020-08-25 18:00:00 24.9 31 Norte 42 Norte 0 1007.7 -- 79
2020-08-25 17:00:00 25.5 29 Norte 39 Nordeste 0 1008 -- 76
2020-08-25 16:00:00 25.8 31 Norte 39 Norte 0 1008.2 -- 75
2020-08-25 15:00:00 26.1 26 Norte 39 Norte 0 1008.3 -- 73
2020-08-25 14:00:00 26.1 27 Norte 37 Norte 0 1008.8 -- 72
2020-08-25 13:00:00 26.1 27 Norte 35 Nordeste 0 1008.9 -- 71
2020-08-25 12:00:00 25.7 28 Norte 35 Nordeste 0 1009.1 -- 73
2020-08-25 11:00:00 25.3 26 Norte 37 Norte 0 1009 -- 75
2020-08-25 10:00:00 24.3 29 Norte 35 Norte 0 1008.3 -- 77
2020-08-25 09:00:00 23.3 21 Norte 32 Norte 0 1008.1 -- 77
2020-08-25 08:00:00 22.3 21 Noroeste 30 Norte 0 1007.9 -- 76
2020-08-25 07:00:00 22.4 18 Noroeste 30 Noroeste 0 1007.7 -- 78
2020-08-25 06:00:00 22.6 20 Norte 32 Norte 0 1007.8 -- 76
2020-08-25 05:00:00 22.7 18 Norte 37 Norte 0 1008.2 -- 75
2020-08-25 04:00:00 22.9 26 Norte 42 Norte 0 1008.5 -- 80
2020-08-25 03:00:00 23 26 Norte 41 Norte 0 1008.8 -- 79
2020-08-25 02:00:00 23.2 31 Norte 42 Norte 0 1009.3 -- 80
2020-08-25 01:00:00 23.2 33 Norte 45 Norte 0 1009.9 -- 80
2020-08-25 00:00:00 23.4 27 Norte 45 Norte 0 1010.4 -- 78
2020-08-24 23:00:00 23.4 33 Norte 45 Norte 0 1010.3 -- 81
2020-08-24 22:00:00 23.8 33 Norte 46 Norte 0 1009.7 -- 78
2020-08-24 21:00:00 23.6 37 Norte 46 Nordeste 0 1009.4 -- 82
2020-08-24 20:00:00 24 32 Norte 42 Norte 0 1009.1 -- 80
2020-08-24 19:00:00 24.6 34 Norte 46 Norte 0 1009 -- 79
2020-08-24 18:00:00 25.3 28 Norte 42 Norte 0 1009.2 -- 74
2020-08-24 17:00:00 26.1 28 Norte 37 Norte 0 1009.3 -- 70
2020-08-24 16:00:00 26.8 24 Norte 33 Nordeste 0 1009.9 -- 68
2020-08-24 15:00:00 27 24 Norte 33 Norte 0 1010.5 -- 67
2020-08-24 14:00:00 27.3 19 Norte 32 Norte 0 1011.3 -- 67
2020-08-24 13:00:00 26.6 17 Norte 39 Noroeste 0 1011.6 -- 68
2020-08-24 12:00:00 26.8 18 Norte 39 Norte 0 1012 -- 65
2020-08-24 11:00:00 26.1 25 Norte 35 Norte 0 1011.9 -- 68
2020-08-24 10:00:00 25.3 22 Norte 32 Norte 0 1011.6 -- 72
2020-08-24 09:00:00 24.4 19 Norte 30 Norte 0 1011.5 -- 67
2020-08-24 08:00:00 22.9 22 Norte 37 Norte 0 1011 -- 70
2020-08-24 07:00:00 22.6 25 Norte 39 Norte 0 1011 -- 79
2020-08-24 06:00:00 23 21 Norte 33 Norte 0 1010.6 -- 76
2020-08-24 05:00:00 22.8 9 Norte 32 Norte 0 1010.8 -- 67
2020-08-24 04:00:00 23.5 13 Noroeste 28 Norte 0 1011.3 -- 54
2020-08-24 03:00:00 22.9 18 Norte 42 Norte 0 1012 -- 78
2020-08-24 02:00:00 22.9 29 Norte 45 Norte 0 1012.1 -- 77
2020-08-24 01:00:00 22.9 30 Norte 42 Norte 0 1012.5 -- 82
2020-08-24 00:00:00 23.1 31 Norte 42 Nordeste 0 1012.8 -- 83